Time,TemperatureF,DewpointF,PressureIn,WindDirection,WindDirectionDegrees,WindSpeedMPH,WindSpeedGustMPH,Humidity,HourlyPrecipIn,Conditions,Clouds,dailyrainin,SoftwareType,DateUTC
2013-04-01 00:09:00,43.1,40.0,29.66,ESE,119,0.0,-999.0,87,-99.99,,,0.01,weatherlink.com 1.10,2013-04-01 04:09:00,
2013-04-01 00:24:00,43.1,40.0,29.65,West,263,0.0,-999.0,89,-99.99,,,0.02,weatherlink.com 1.10,2013-04-01 04:24:00,
2013-04-01 00:39:00,42.9,40.0,29.64,WSW,237,0.0,-999.0,90,-99.99,,,0.04,weatherlink.com 1.10,2013-04-01 04:39:00,
2013-04-01 00:55:00,42.8,40.0,29.64,East,84,0.0,-999.0,91,-99.99,,,0.07,weatherlink.com 1.10,2013-04-01 04:55:00,
2013-04-01 01:09:00,42.6,40.0,29.62,ENE,78,0.0,-999.0,91,-99.99,,,0.09,weatherlink.com 1.10,2013-04-01 05:09:00,
2013-04-01 01:24:00,42.5,40.0,29.61,South,190,0.0,-999.0,92,-99.99,,,0.11,weatherlink.com 1.10,2013-04-01 05:24:00,
2013-04-01 01:39:00,42.4,41.0,29.59,East,86,1.0,-999.0,93,-99.99,,,0.13,weatherlink.com 1.10,2013-04-01 05:39:00,
2013-04-01 01:55:00,42.4,41.0,29.58,ESE,109,1.0,-999.0,93,-99.99,,,0.14,weatherlink.com 1.10,2013-04-01 05:55:00,
2013-04-01 02:10:00,42.5,41.0,29.56,East,87,0.0,-999.0,94,-99.99,,,0.15,weatherlink.com 1.10,2013-04-01 06:10:00,
2013-04-01 02:25:00,42.6,41.0,29.54,ENE,57,1.0,-999.0,94,-99.99,,,0.19,weatherlink.com 1.10,2013-04-01 06:25:00,
2013-04-01 02:40:00,42.7,41.0,29.52,East,90,6.0,-999.0,95,-99.99,,,0.21,weatherlink.com 1.10,2013-04-01 06:40:00,
2013-04-01 02:55:00,42.7,41.0,29.51,ENE,61,3.0,-999.0,95,-99.99,,,0.25,weatherlink.com 1.10,2013-04-01 06:55:00,
2013-04-01 03:10:00,42.8,42.0,29.50,ENE,71,1.0,-999.0,95,-99.99,,,0.30,weatherlink.com 1.10,2013-04-01 07:10:00,
2013-04-01 03:25:00,42.7,41.0,29.49,NE,40,5.0,-999.0,95,-99.99,,,0.33,weatherlink.com 1.10,2013-04-01 07:25:00,
2013-04-01 03:40:00,42.6,41.0,29.48,East,80,3.0,-999.0,95,-99.99,,,0.35,weatherlink.com 1.10,2013-04-01 07:40:00,
2013-04-01 03:55:00,42.6,41.0,29.47,ENE,63,2.0,-999.0,95,-99.99,,,0.36,weatherlink.com 1.10,2013-04-01 07:55:00,
2013-04-01 04:10:00,42.6,41.0,29.46,ENE,63,4.0,-999.0,95,-99.99,,,0.37,weatherlink.com 1.10,2013-04-01 08:10:00,
2013-04-01 04:25:00,42.6,41.0,29.45,NNE,26,4.0,-999.0,95,-99.99,,,0.37,weatherlink.com 1.10,2013-04-01 08:25:00,
2013-04-01 04:40:00,42.6,41.0,29.44,ENE,60,3.0,-999.0,95,-99.99,,,0.37,weatherlink.com 1.10,2013-04-01 08:40:00,
2013-04-01 04:55:00,42.5,41.0,29.44,WNW,285,1.0,-999.0,95,-99.99,,,0.37,weatherlink.com 1.10,2013-04-01 08:55:00,
2013-04-01 05:10:00,42.5,41.0,29.44,NNE,13,0.0,-999.0,95,-99.99,,,0.37,weatherlink.com 1.10,2013-04-01 09:10:00,
2013-04-01 05:25:00,42.5,41.0,29.44,NNE,13,3.0,-999.0,95,-99.99,,,0.37,weatherlink.com 1.10,2013-04-01 09:25:00,
2013-04-01 05:40:00,42.5,41.0,29.45,WNW,300,0.0,-999.0,95,-99.99,,,0.37,weatherlink.com 1.10,2013-04-01 09:40:00,
2013-04-01 05:55:00,42.4,41.0,29.45,NNW,347,0.0,-999.0,95,-99.99,,,0.37,weatherlink.com 1.10,2013-04-01 09:55:00,
2013-04-01 06:10:00,42.3,41.0,29.45,NW,304,0.0,-999.0,95,-99.99,,,0.37,weatherlink.com 1.10,2013-04-01 10:10:00,
2013-04-01 06:25:00,42.3,41.0,29.46,NW,313,0.0,-999.0,95,-99.99,,,0.37,weatherlink.com 1.10,2013-04-01 10:25:00,
2013-04-01 06:40:00,42.3,41.0,29.47,WNW,282,0.0,-999.0,96,-99.99,,,0.37,weatherlink.com 1.10,2013-04-01 10:40:00,
2013-04-01 06:55:00,42.3,41.0,29.48,WNW,284,0.0,-999.0,96,-99.99,,,0.37,weatherlink.com 1.10,2013-04-01 10:55:00,
2013-04-01 07:10:00,42.3,41.0,29.48,West,265,0.0,-999.0,95,-99.99,,,0.37,weatherlink.com 1.10,2013-04-01 11:10:00,
2013-04-01 07:25:00,42.2,41.0,29.48,NNW,335,0.0,-999.0,95,-99.99,,,0.37,weatherlink.com 1.10,2013-04-01 11:25:00,
2013-04-01 07:40:00,42.2,41.0,29.49,WNW,298,1.0,-999.0,95,-99.99,,,0.37,weatherlink.com 1.10,2013-04-01 11:40:00,
2013-04-01 07:55:00,42.3,41.0,29.50,WNW,296,1.0,-999.0,96,-99.99,,,0.37,weatherlink.com 1.10,2013-04-01 11:55:00,
2013-04-01 08:10:00,42.5,41.0,29.49,NW,305,2.0,-999.0,95,-99.99,,,0.37,weatherlink.com 1.10,2013-04-01 12:10:00,
2013-04-01 08:25:00,43.4,42.0,29.48,NW,316,3.0,-999.0,95,-99.99,,,0.37,weatherlink.com 1.10,2013-04-01 12:25:00,
2013-04-01 08:40:00,44.2,43.0,29.48,NW,311,0.0,-999.0,94,-99.99,,,0.37,weatherlink.com 1.10,2013-04-01 12:40:00,
2013-04-01 08:55:00,44.8,43.0,29.48,SW,218,0.0,-999.0,92,-99.99,,,0.37,weatherlink.com 1.10,2013-04-01 12:55:00,
2013-04-01 09:10:00,44.5,42.0,29.49,WNW,294,2.0,-999.0,91,-99.99,,,0.37,weatherlink.com 1.10,2013-04-01 13:10:00,
2013-04-01 09:25:00,44.7,42.0,29.49,SW,225,2.0,-999.0,91,-99.99,,,0.37,weatherlink.com 1.10,2013-04-01 13:25:00,
2013-04-01 09:40:00,45.0,42.0,29.49,WNW,295,5.0,-999.0,90,-99.99,,,0.37,weatherlink.com 1.10,2013-04-01 13:40:00,
2013-04-01 09:55:00,45.4,42.0,29.49,WNW,299,0.0,-999.0,89,-99.99,,,0.37,weatherlink.com 1.10,2013-04-01 13:55:00,
2013-04-01 10:10:00,47.4,43.0,29.49,WNW,292,0.0,-999.0,86,-99.99,,,0.37,weatherlink.com 1.10,2013-04-01 14:10:00,
2013-04-01 10:25:00,49.0,44.0,29.49,West,279,1.0,-999.0,84,-99.99,,,0.37,weatherlink.com 1.10,2013-04-01 14:25:00,
2013-04-01 10:40:00,49.4,44.0,29.48,West,277,0.0,-999.0,80,-99.99,,,0.37,weatherlink.com 1.10,2013-04-01 14:40:00,
2013-04-01 10:55:00,49.9,44.0,29.48,SSW,205,3.0,-999.0,79,-99.99,,,0.37,weatherlink.com 1.10,2013-04-01 14:55:00,
2013-04-01 11:10:00,50.8,44.0,29.48,ENE,58,1.0,-999.0,76,-99.99,,,0.37,weatherlink.com 1.10,2013-04-01 15:10:00,
2013-04-01 11:25:00,51.4,43.0,29.48,WSW,242,0.0,-999.0,73,-99.99,,,0.37,weatherlink.com 1.10,2013-04-01 15:25:00,
2013-04-01 11:40:00,52.9,44.0,29.47,WSW,248,0.0,-999.0,71,-99.99,,,0.37,weatherlink.com 1.10,2013-04-01 15:40:00,
2013-04-01 11:55:00,54.1,45.0,29.46,WSW,254,0.0,-999.0,72,-99.99,,,0.37,weatherlink.com 1.10,2013-04-01 15:55:00,
2013-04-01 12:10:00,55.2,43.0,29.45,NE,34,0.0,-999.0,63,-99.99,,,0.37,weatherlink.com 1.10,2013-04-01 16:10:00,
2013-04-01 12:25:00,55.7,44.0,29.44,North,5,5.0,-999.0,64,-99.99,,,0.37,weatherlink.com 1.10,2013-04-01 16:25:00,
2013-04-01 12:40:00,57.0,43.0,29.45,SSW,196,0.0,-999.0,60,-99.99,,,0.37,weatherlink.com 1.10,2013-04-01 16:40:00,
2013-04-01 12:55:00,58.4,43.0,29.44,West,280,0.0,-999.0,58,-99.99,,,0.37,weatherlink.com 1.10,2013-04-01 16:55:00,
2013-04-01 13:10:00,59.3,43.0,29.43,WNW,282,0.0,-999.0,55,-99.99,,,0.37,weatherlink.com 1.10,2013-04-01 17:10:00,
2013-04-01 13:25:00,59.1,43.0,29.43,West,263,0.0,-999.0,55,-99.99,,,0.37,weatherlink.com 1.10,2013-04-01 17:25:00,
2013-04-01 13:40:00,58.4,42.0,29.43,SW,236,0.0,-999.0,55,-99.99,,,0.37,weatherlink.com 1.10,2013-04-01 17:40:00,
2013-04-01 13:55:00,58.4,42.0,29.42,West,265,0.0,-999.0,55,-99.99,,,0.37,weatherlink.com 1.10,2013-04-01 17:55:00,
2013-04-01 14:10:00,58.9,42.0,29.41,West,260,0.0,-999.0,54,-99.99,,,0.37,weatherlink.com 1.10,2013-04-01 18:10:00,
2013-04-01 14:25:00,58.9,41.0,29.40,SW,234,0.0,-999.0,52,-99.99,,,0.37,weatherlink.com 1.10,2013-04-01 18:25:00,
2013-04-01 14:40:00,58.5,41.0,29.40,WNW,284,0.0,-999.0,53,-99.99,,,0.37,weatherlink.com 1.10,2013-04-01 18:40:00,
2013-04-01 14:55:00,58.5,42.0,29.39,SSW,204,0.0,-999.0,54,-99.99,,,0.37,weatherlink.com 1.10,2013-04-01 18:55:00,
2013-04-01 15:10:00,58.6,42.0,29.38,South,188,0.0,-999.0,54,-99.99,,,0.37,weatherlink.com 1.10,2013-04-01 19:10:00,
2013-04-01 15:25:00,58.7,41.0,29.38,WSW,257,2.0,-999.0,52,-99.99,,,0.37,weatherlink.com 1.10,2013-04-01 19:25:00,
2013-04-01 15:40:00,58.6,40.0,29.38,NW,306,0.0,-999.0,51,-99.99,,,0.37,weatherlink.com 1.10,2013-04-01 19:40:00,
2013-04-01 15:55:00,59.1,41.0,29.37,WSW,248,6.0,-999.0,51,-99.99,,,0.37,weatherlink.com 1.10,2013-04-01 19:55:00,
2013-04-01 16:10:00,58.5,41.0,29.41,SW,236,0.0,-999.0,53,-99.99,,,0.37,weatherlink.com 1.10,2013-04-01 20:10:00,
2013-04-01 16:25:00,50.0,44.0,29.41,West,277,0.0,-999.0,79,-99.99,,,0.39,weatherlink.com 1.10,2013-04-01 20:25:00,
2013-04-01 16:40:00,49.2,44.0,29.41,WNW,284,2.0,-999.0,82,-99.99,,,0.39,weatherlink.com 1.10,2013-04-01 20:40:00,
2013-04-01 16:55:00,48.7,43.0,29.43,West,262,0.0,-999.0,81,-99.99,,,0.39,weatherlink.com 1.10,2013-04-01 20:55:00,
2013-04-01 17:11:00,48.5,42.0,29.43,West,261,3.0,-999.0,79,-99.99,,,0.39,weatherlink.com 1.10,2013-04-01 21:11:00,
2013-04-01 17:25:00,48.1,42.0,29.44,WNW,300,0.0,-999.0,78,-99.99,,,0.39,weatherlink.com 1.10,2013-04-01 21:25:00,
2013-04-01 17:40:00,48.1,42.0,29.44,West,264,0.0,-999.0,79,-99.99,,,0.39,weatherlink.com 1.10,2013-04-01 21:40:00,
2013-04-01 17:55:00,48.2,42.0,29.45,WNW,302,0.0,-999.0,78,-99.99,,,0.39,weatherlink.com 1.10,2013-04-01 21:55:00,
2013-04-01 18:10:00,48.2,36.0,29.47,NW,319,6.0,-999.0,64,-99.99,,,0.39,weatherlink.com 1.10,2013-04-01 22:10:00,
2013-04-01 18:25:00,47.2,33.0,29.47,NW,314,4.0,-999.0,59,-99.99,,,0.39,weatherlink.com 1.10,2013-04-01 22:25:00,
2013-04-01 18:40:00,46.5,31.0,29.49,WNW,284,2.0,-999.0,56,-99.99,,,0.39,weatherlink.com 1.10,2013-04-01 22:40:00,
2013-04-01 18:55:00,45.7,31.0,29.50,West,275,3.0,-999.0,57,-99.99,,,0.39,weatherlink.com 1.10,2013-04-01 22:55:00,
2013-04-01 19:10:00,45.0,30.0,29.50,SW,224,1.0,-999.0,57,-99.99,,,0.39,weatherlink.com 1.10,2013-04-01 23:10:00,
2013-04-01 19:25:00,44.3,27.0,29.52,West,276,5.0,-999.0,50,-99.99,,,0.39,weatherlink.com 1.10,2013-04-01 23:25:00,
2013-04-01 19:40:00,43.6,26.0,29.53,NW,304,3.0,-999.0,51,-99.99,,,0.39,weatherlink.com 1.10,2013-04-01 23:40:00,
2013-04-01 19:55:00,42.7,26.0,29.53,NW,313,1.0,-999.0,52,-99.99,,,0.39,weatherlink.com 1.10,2013-04-01 23:55:00,
2013-04-01 20:10:00,42.1,25.0,29.54,NW,306,2.0,-999.0,52,-99.99,,,0.39,weatherlink.com 1.10,2013-04-02 00:10:00,
2013-04-01 20:25:00,41.8,24.0,29.55,WNW,288,4.0,-999.0,49,-99.99,,,0.39,weatherlink.com 1.10,2013-04-02 00:25:00,
2013-04-01 20:40:00,41.2,21.0,29.55,NW,305,3.0,-999.0,45,-99.99,,,0.39,weatherlink.com 1.10,2013-04-02 00:40:00,
2013-04-01 20:55:00,40.6,18.0,29.57,NW,316,2.0,-999.0,40,-99.99,,,0.39,weatherlink.com 1.10,2013-04-02 00:55:00,
2013-04-01 21:10:00,39.8,18.0,29.58,West,267,3.0,-999.0,41,-99.99,,,0.39,weatherlink.com 1.10,2013-04-02 01:10:00,
2013-04-01 21:25:00,39.4,14.0,29.59,NNW,342,3.0,-999.0,36,-99.99,,,0.39,weatherlink.com 1.10,2013-04-02 01:25:00,
2013-04-01 21:40:00,38.8,14.0,29.59,WNW,302,0.0,-999.0,37,-99.99,,,0.39,weatherlink.com 1.10,2013-04-02 01:40:00,
2013-04-01 21:55:00,38.2,14.0,29.60,WNW,294,0.0,-999.0,37,-99.99,,,0.39,weatherlink.com 1.10,2013-04-02 01:55:00,
2013-04-01 22:10:00,37.6,14.0,29.61,West,264,0.0,-999.0,38,-99.99,,,0.39,weatherlink.com 1.10,2013-04-02 02:10:00,
2013-04-01 22:25:00,36.8,13.0,29.61,WNW,286,0.0,-999.0,38,-99.99,,,0.39,weatherlink.com 1.10,2013-04-02 02:25:00,
2013-04-01 22:40:00,36.6,13.0,29.62,North,350,0.0,-999.0,38,-99.99,,,0.39,weatherlink.com 1.10,2013-04-02 02:40:00,
2013-04-01 22:55:00,35.9,14.0,29.62,West,269,2.0,-999.0,40,-99.99,,,0.39,weatherlink.com 1.10,2013-04-02 02:55:00,
2013-04-01 23:10:00,35.6,13.0,29.62,NNE,19,2.0,-999.0,40,-99.99,,,0.39,weatherlink.com 1.10,2013-04-02 03:10:00,
2013-04-01 23:25:00,35.3,14.0,29.63,WNW,295,3.0,-999.0,42,-99.99,,,0.39,weatherlink.com 1.10,2013-04-02 03:25:00,
2013-04-01 23:40:00,34.7,15.0,29.63,West,269,1.0,-999.0,44,-99.99,,,0.39,weatherlink.com 1.10,2013-04-02 03:40:00,
2013-04-01 23:55:00,34.5,14.0,29.64,WNW,302,4.0,-999.0,43,-99.99,,,0.39,weatherlink.com 1.10,2013-04-02 03:55:00,